createdAt,value
2018-11-02T00:00:17.018Z,99528.00
2018-11-02T00:02:45.190Z,99529.00
2018-11-02T00:05:13.458Z,99532.00
2018-11-02T00:07:41.659Z,99527.00
2018-11-02T00:10:09.876Z,99530.00
2018-11-02T00:12:38.032Z,99530.00
2018-11-02T00:15:06.694Z,99533.00
2018-11-02T00:17:36.308Z,99540.00
2018-11-02T00:20:05.486Z,99538.00
2018-11-02T00:22:33.772Z,99540.00
2018-11-02T00:25:02.804Z,99537.00
2018-11-02T00:27:37.105Z,99542.00
2018-11-02T00:30:06.781Z,99552.00
2018-11-02T00:32:35.001Z,99566.00
2018-11-02T00:35:03.284Z,99571.00
2018-11-02T00:37:31.476Z,99583.00
2018-11-02T00:39:59.755Z,99584.00
2018-11-02T00:42:28.210Z,99584.00
2018-11-02T00:44:56.450Z,99585.00
2018-11-02T00:47:24.660Z,99590.00
2018-11-02T00:49:52.881Z,99606.00
2018-11-02T00:52:21.029Z,99605.00
2018-11-02T00:54:49.397Z,99594.00
2018-11-02T00:57:17.595Z,99630.00
2018-11-02T00:59:45.853Z,99630.00
2018-11-02T01:02:14.045Z,99637.00
2018-11-02T01:04:42.322Z,99642.00
2018-11-02T01:07:10.519Z,99644.00
2018-11-02T01:09:38.802Z,99638.00
2018-11-02T01:12:07.055Z,99639.00
2018-11-02T01:14:35.224Z,99640.00
2018-11-02T01:17:03.447Z,99630.00
2018-11-02T01:19:32.468Z,99627.00
2018-11-02T01:22:02.627Z,99620.00
2018-11-02T01:24:31.016Z,99627.00
2018-11-02T01:26:59.199Z,99631.00
2018-11-02T01:29:45.942Z,99631.00
2018-11-02T01:32:14.163Z,99632.00
2018-11-02T01:34:42.424Z,99627.00
2018-11-02T01:37:10.609Z,99637.00
2018-11-02T01:39:38.859Z,99635.00
2018-11-02T01:42:07.083Z,99640.00
2018-11-02T01:44:35.428Z,99637.00
2018-11-02T01:47:03.686Z,99634.00
2018-11-02T01:49:36.941Z,99626.00
2018-11-02T01:52:05.482Z,99626.00
2018-11-02T01:54:33.732Z,99632.00
2018-11-02T01:57:01.977Z,99636.00
2018-11-02T01:59:30.214Z,99639.00
2018-11-02T02:01:58.530Z,99629.00
2018-11-02T02:04:26.830Z,99624.00
2018-11-02T02:06:55.070Z,99623.00
2018-11-02T02:09:32.793Z,99626.00
2018-11-02T02:12:01.015Z,99621.00
2018-11-02T02:14:29.320Z,99615.00
2018-11-02T02:16:57.495Z,99614.00
2018-11-02T02:19:25.684Z,99625.00
2018-11-02T02:21:54.063Z,99632.00
2018-11-02T02:24:22.264Z,99627.00
2018-11-02T02:26:50.541Z,99628.00
2018-11-02T02:29:18.764Z,99628.00
2018-11-02T02:31:46.917Z,99631.00
2018-11-02T02:34:15.001Z,99629.00
2018-11-02T02:36:44.283Z,99626.00
2018-11-02T02:39:12.410Z,99638.00
2018-11-02T02:41:40.598Z,99638.00
2018-11-02T02:44:08.799Z,99641.00
2018-11-02T02:46:37.214Z,99635.00
2018-11-02T02:49:06.114Z,99637.00
2018-11-02T02:51:34.247Z,99635.00
2018-11-02T02:54:02.645Z,99624.00
2018-11-02T02:56:30.934Z,99623.00
2018-11-02T02:59:04.423Z,99620.00
2018-11-02T03:01:32.643Z,99631.00
2018-11-02T03:04:00.839Z,99634.00
2018-11-02T03:06:29.636Z,99639.00
2018-11-02T03:08:57.822Z,99646.00
2018-11-02T03:11:26.067Z,99646.00
2018-11-02T03:13:54.252Z,99648.00
2018-11-02T03:16:22.395Z,99651.00
2018-11-02T03:18:51.363Z,99655.00
2018-11-02T03:21:19.386Z,99650.00
2018-11-02T03:23:47.492Z,99656.00
2018-11-02T03:26:15.699Z,99661.00
2018-11-02T03:28:43.933Z,99678.00
2018-11-02T03:31:12.140Z,99676.00
2018-11-02T03:33:40.384Z,99677.00
2018-11-02T03:36:09.590Z,99682.00
2018-11-02T03:38:43.915Z,99681.00
2018-11-02T03:41:12.119Z,99679.00
2018-11-02T03:43:40.363Z,99678.00
2018-11-02T03:46:08.564Z,99683.00
2018-11-02T03:48:36.731Z,99674.00
2018-11-02T03:51:05.104Z,99682.00
2018-11-02T03:53:33.278Z,99689.00
2018-11-02T03:56:02.508Z,99702.00
2018-11-02T03:58:40.224Z,99708.00
2018-11-02T04:01:08.419Z,99710.00
2018-11-02T04:03:37.301Z,99709.00
2018-11-02T04:06:06.908Z,99710.00
2018-11-02T04:08:35.139Z,99710.00
2018-11-02T04:11:03.339Z,99707.00
2018-11-02T04:13:31.528Z,99695.00
2018-11-02T04:15:59.674Z,99695.00
2018-11-02T04:18:27.913Z,99695.00
2018-11-02T04:20:56.160Z,99693.00
2018-11-02T04:23:24.290Z,99692.00
2018-11-02T04:25:52.517Z,99699.00
2018-11-02T04:28:20.758Z,99697.00
2018-11-02T04:30:49.001Z,99693.00
2018-11-02T04:33:17.110Z,99695.00
2018-11-02T04:35:45.389Z,99697.00
2018-11-02T04:38:13.564Z,99706.00
2018-11-02T04:40:43.020Z,99709.00
2018-11-02T04:43:11.133Z,99719.00
2018-11-02T04:45:40.208Z,99722.00
2018-11-02T04:48:10.066Z,99739.00
2018-11-02T04:50:38.899Z,99754.00
2018-11-02T04:53:07.167Z,99766.00
2018-11-02T04:55:35.387Z,99765.00
2018-11-02T04:58:03.633Z,99765.00
2018-11-02T05:00:32.162Z,99766.00
2018-11-02T05:03:01.168Z,99764.00
2018-11-02T05:05:29.293Z,99760.00
2018-11-02T05:07:58.218Z,99767.00
2018-11-02T05:10:27.150Z,99773.00
2018-11-02T05:12:56.190Z,99772.00
2018-11-02T05:15:24.368Z,99782.00
2018-11-02T05:17:52.670Z,99789.00
2018-11-02T05:20:20.846Z,99790.00
2018-11-02T05:22:49.728Z,99785.00
2018-11-02T05:25:17.948Z,99789.00
2018-11-02T05:27:46.145Z,99793.00
2018-11-02T05:30:14.386Z,99803.00
2018-11-02T05:32:42.594Z,99812.00
2018-11-02T05:35:10.829Z,99814.00
2018-11-02T05:37:38.970Z,99812.00
2018-11-02T05:40:07.827Z,99815.00
2018-11-02T05:42:36.157Z,99811.00
2018-11-02T05:45:05.530Z,99808.00
2018-11-02T05:47:33.995Z,99811.00
2018-11-02T05:50:02.311Z,99822.00
2018-11-02T05:52:31.788Z,99835.00
2018-11-02T05:55:00.166Z,99840.00
2018-11-02T05:57:28.395Z,99845.00
2018-11-02T05:59:56.596Z,99839.00
2018-11-02T06:02:24.762Z,99845.00
2018-11-02T06:04:52.859Z,99850.00
2018-11-02T06:07:21.172Z,99855.00
2018-11-02T06:09:49.341Z,99855.00
2018-11-02T06:12:17.645Z,99856.00
2018-11-02T06:14:45.895Z,99856.00
2018-11-02T06:17:14.023Z,99859.00
2018-11-02T06:19:42.405Z,99865.00
2018-11-02T06:22:10.629Z,99822.00
2018-11-02T06:24:38.827Z,99878.00
2018-11-02T06:27:06.991Z,99874.00
2018-11-02T06:29:35.256Z,99879.00
2018-11-02T06:32:03.502Z,99881.00
2018-11-02T06:34:31.693Z,99890.00
2018-11-02T06:36:59.855Z,99893.00
2018-11-02T06:39:28.104Z,99896.00
2018-11-02T06:41:56.665Z,99909.00
2018-11-02T06:44:24.835Z,99919.00
2018-11-02T06:46:53.094Z,99922.00
2018-11-02T06:49:21.277Z,99920.00
2018-11-02T06:51:49.462Z,99928.00
2018-11-02T06:54:17.660Z,99932.00
2018-11-02T06:56:45.928Z,99941.00
2018-11-02T06:59:14.094Z,99937.00
2018-11-02T07:01:42.433Z,99941.00
2018-11-02T07:04:10.944Z,99951.00
2018-11-02T07:06:39.184Z,99958.00
2018-11-02T07:09:09.600Z,99963.00
2018-11-02T07:11:37.888Z,99969.00
2018-11-02T07:14:06.578Z,99981.00
2018-11-02T07:16:34.769Z,99993.00
2018-11-02T07:19:03.040Z,100000.00
2018-11-02T07:21:31.217Z,100004.00
2018-11-02T07:23:59.446Z,100001.00
2018-11-02T07:26:27.797Z,99998.00
2018-11-02T07:28:56.016Z,100001.00
2018-11-02T07:31:24.175Z,99999.00
2018-11-02T07:33:52.316Z,100003.00
2018-11-02T07:36:20.527Z,100004.00
2018-11-02T07:38:48.705Z,100007.00
2018-11-02T07:41:16.857Z,100010.00
2018-11-02T07:43:44.967Z,100007.00
2018-11-02T07:46:13.125Z,100010.00
2018-11-02T07:48:41.468Z,100011.00
2018-11-02T07:51:09.722Z,100017.00
2018-11-02T07:53:37.959Z,100030.00
2018-11-02T07:56:06.213Z,100037.00
2018-11-02T07:58:39.807Z,100036.00
2018-11-02T08:01:08.198Z,100036.00
2018-11-02T08:03:36.344Z,100031.00
2018-11-02T08:06:04.705Z,100037.00
2018-11-02T08:08:32.969Z,100050.00
2018-11-02T08:11:01.146Z,100049.00
2018-11-02T08:13:29.416Z,100058.00
2018-11-02T08:15:57.682Z,100062.00
2018-11-02T08:18:25.949Z,100049.00
2018-11-02T08:20:54.107Z,100040.00
2018-11-02T08:23:22.211Z,100033.00
2018-11-02T08:25:50.505Z,100049.00
2018-11-02T08:28:24.010Z,100060.00
2018-11-02T08:30:52.788Z,100064.00
2018-11-02T08:33:20.954Z,100062.00
2018-11-02T08:35:49.243Z,100056.00
2018-11-02T08:38:17.500Z,100056.00
2018-11-02T08:40:45.692Z,100058.00
2018-11-02T08:43:13.896Z,100056.00
2018-11-02T08:45:42.738Z,100056.00
2018-11-02T08:48:11.150Z,100063.00
2018-11-02T08:50:39.363Z,100066.00
2018-11-02T08:53:07.490Z,100055.00
2018-11-02T08:55:35.721Z,100055.00
2018-11-02T08:58:09.387Z,100058.00
2018-11-02T09:00:37.303Z,100053.00
2018-11-02T09:03:05.605Z,100051.00
2018-11-02T09:05:33.811Z,100047.00
2018-11-02T09:08:06.969Z,100058.00
2018-11-02T09:10:35.134Z,100058.00
2018-11-02T09:13:03.429Z,100054.00
2018-11-02T09:15:31.633Z,100050.00
2018-11-02T09:18:00.042Z,100059.00
2018-11-02T09:20:28.074Z,100043.00
2018-11-02T09:22:56.865Z,100048.00
2018-11-02T09:25:25.047Z,100047.00
2018-11-02T09:27:53.258Z,100053.00
2018-11-02T09:30:21.406Z,100059.00
2018-11-02T09:32:49.839Z,100061.00
2018-11-02T09:35:18.015Z,100053.00
2018-11-02T09:37:51.288Z,100049.00
2018-11-02T09:40:19.490Z,100058.00
2018-11-02T09:42:47.774Z,100061.00
2018-11-02T09:45:15.816Z,100071.00
2018-11-02T09:47:44.277Z,100065.00
2018-11-02T09:50:12.753Z,100062.00
2018-11-02T09:52:41.032Z,100067.00
2018-11-02T09:55:11.837Z,100065.00
2018-11-02T09:57:40.210Z,100070.00
2018-11-02T10:00:09.843Z,100068.00
2018-11-02T10:02:38.098Z,100058.00
2018-11-02T10:05:08.113Z,100056.00
2018-11-02T10:07:37.316Z,100053.00
2018-11-02T10:10:07.330Z,100044.00
2018-11-02T10:12:35.630Z,100038.00
2018-11-02T10:15:04.386Z,100032.00
2018-11-02T10:17:33.083Z,100030.00
2018-11-02T10:20:01.326Z,100031.00
2018-11-02T10:22:29.554Z,100027.00
2018-11-02T10:24:57.775Z,100026.00
2018-11-02T10:27:26.201Z,100025.00
2018-11-02T10:29:54.535Z,100030.00
2018-11-02T10:32:22.855Z,100037.00
2018-11-02T10:34:51.705Z,100040.00
2018-11-02T10:37:19.952Z,100048.00
2018-11-02T10:39:48.538Z,100049.00
2018-11-02T10:42:16.941Z,100050.00
2018-11-02T10:44:45.813Z,100047.00
2018-11-02T10:47:14.383Z,100048.00
2018-11-02T10:49:42.860Z,100049.00
2018-11-02T10:52:11.113Z,100046.00
2018-11-02T10:54:39.389Z,100039.00
2018-11-02T10:57:07.581Z,100034.00
2018-11-02T10:59:36.004Z,100024.00
2018-11-02T11:02:06.692Z,100015.00
2018-11-02T11:04:35.385Z,100018.00
2018-11-02T11:07:03.752Z,100019.00
2018-11-02T11:09:32.013Z,100015.00
2018-11-02T11:12:00.334Z,100018.00
2018-11-02T11:14:28.847Z,100019.00
2018-11-02T11:16:57.088Z,100013.00
2018-11-02T11:19:25.496Z,100015.00
2018-11-02T11:21:53.808Z,100008.00
2018-11-02T11:24:22.992Z,99997.00
2018-11-02T11:26:51.266Z,100008.00
2018-11-02T11:29:19.751Z,99986.00
2018-11-02T11:31:47.982Z,99995.00
2018-11-02T11:34:16.252Z,99993.00
2018-11-02T11:36:44.552Z,99991.00
2018-11-02T11:39:14.400Z,99986.00
2018-11-02T11:41:43.657Z,99986.00
2018-11-02T11:44:13.306Z,99990.00
2018-11-02T11:46:41.502Z,100004.00
2018-11-02T11:49:10.135Z,100004.00
2018-11-02T11:51:38.393Z,100006.00
2018-11-02T11:54:06.582Z,100012.00
2018-11-02T11:56:34.721Z,100010.00
2018-11-02T11:59:04.305Z,100004.00
2018-11-02T12:01:32.607Z,100003.00
2018-11-02T12:04:00.882Z,99995.00
2018-11-02T12:06:29.082Z,100004.00
2018-11-02T12:08:57.257Z,100001.00
2018-11-02T12:11:25.588Z,100006.00
2018-11-02T12:13:53.791Z,100014.00
2018-11-02T12:16:21.987Z,100019.00
2018-11-02T12:18:50.420Z,100012.00
2018-11-02T12:21:18.705Z,100002.00
2018-11-02T12:23:46.892Z,100003.00
2018-11-02T12:26:15.141Z,100000.00
2018-11-02T12:28:44.539Z,100005.00
2018-11-02T12:31:15.721Z,100007.00
2018-11-02T12:33:45.229Z,100015.00
2018-11-02T12:36:14.950Z,100020.00
2018-11-02T12:38:45.062Z,100023.00
2018-11-02T12:41:15.078Z,100023.00
2018-11-02T12:43:44.910Z,100014.00
2018-11-02T12:46:14.614Z,100009.00
2018-11-02T12:48:51.710Z,100009.00
2018-11-02T12:51:21.721Z,100014.00
2018-11-02T12:53:51.941Z,100020.00
2018-11-02T12:56:21.587Z,100032.00
2018-11-02T12:58:57.766Z,100031.00
2018-11-02T13:01:29.166Z,100041.00
2018-11-02T13:03:59.027Z,100042.00
2018-11-02T13:06:31.367Z,100043.00
2018-11-02T13:09:10.505Z,100040.00
2018-11-02T13:11:41.523Z,100032.00
2018-11-02T13:14:11.914Z,100039.00
2018-11-02T13:16:51.369Z,100043.00
2018-11-02T13:19:21.936Z,100037.00
2018-11-02T13:21:52.328Z,100038.00
2018-11-02T13:24:41.252Z,100039.00
2018-11-02T13:27:12.263Z,100030.00
2018-11-02T13:29:43.156Z,100022.00
2018-11-02T13:32:14.911Z,100017.00
2018-11-02T13:34:46.257Z,100006.00
2018-11-02T13:37:23.134Z,100003.00
2018-11-02T13:39:53.070Z,99991.00
2018-11-02T13:42:24.425Z,99991.00
2018-11-02T13:44:55.636Z,99998.00
2018-11-02T13:47:47.752Z,100003.00
2018-11-02T13:56:23.230Z,100005.00
2018-11-02T14:02:00.268Z,100014.00
2018-11-02T14:10:58.704Z,100019.00
2018-11-02T14:13:34.216Z,100031.00
2018-11-02T14:19:03.140Z,100053.00
2018-11-02T14:21:31.447Z,100052.00
2018-11-02T14:23:59.758Z,100054.00
2018-11-02T14:26:28.088Z,100064.00
2018-11-02T14:28:57.096Z,100061.00
2018-11-02T14:31:25.484Z,100073.00
2018-11-02T14:33:53.848Z,100073.00
2018-11-02T14:36:23.074Z,100074.00
2018-11-02T14:38:51.437Z,100071.00
2018-11-02T14:41:21.351Z,100073.00
2018-11-02T14:43:49.882Z,100083.00
2018-11-02T14:46:18.422Z,100077.00
2018-11-02T14:48:47.698Z,100072.00
2018-11-02T14:51:16.469Z,100072.00
2018-11-02T14:53:45.022Z,100077.00
2018-11-02T14:56:13.960Z,100078.00
2018-11-02T14:58:42.186Z,100077.00
2018-11-02T15:01:11.268Z,100075.00
2018-11-02T15:03:39.697Z,100079.00
2018-11-02T15:06:08.056Z,100088.00
2018-11-02T15:08:36.340Z,100091.00
2018-11-02T15:11:05.831Z,100086.00
2018-11-02T15:13:34.237Z,100080.00
2018-11-02T15:16:02.605Z,100078.00
2018-11-02T15:18:30.960Z,100081.00
2018-11-02T15:20:59.881Z,100088.00
2018-11-02T15:23:29.120Z,100093.00
2018-11-02T15:25:57.468Z,100087.00
2018-11-02T15:28:25.842Z,100083.00
2018-11-02T15:30:54.407Z,100087.00
2018-11-02T15:33:22.824Z,100093.00
2018-11-02T15:35:51.144Z,100097.00
2018-11-02T15:38:19.424Z,100103.00
2018-11-02T15:40:47.828Z,100112.00
2018-11-02T15:43:16.512Z,100114.00
2018-11-02T15:45:45.631Z,100122.00
2018-11-02T15:48:13.861Z,100129.00
2018-11-02T15:50:42.124Z,100128.00
2018-11-02T15:53:13.132Z,100141.00
2018-11-02T15:55:41.255Z,100141.00
2018-11-02T15:58:09.451Z,100141.00
2018-11-02T16:00:38.012Z,100139.00
2018-11-02T16:03:06.262Z,100144.00
2018-11-02T16:05:35.122Z,100148.00
2018-11-02T16:08:03.491Z,100144.00
2018-11-02T16:10:32.970Z,100150.00
2018-11-02T16:13:01.136Z,100158.00
2018-11-02T16:15:29.314Z,100170.00
2018-11-02T16:17:57.489Z,100174.00
2018-11-02T16:20:25.704Z,100183.00
2018-11-02T16:22:53.894Z,100180.00
2018-11-02T16:25:22.106Z,100181.00
2018-11-02T16:27:50.283Z,100184.00
2018-11-02T16:30:18.438Z,100181.00
2018-11-02T16:32:46.647Z,100164.00
2018-11-02T16:35:14.818Z,100181.00
2018-11-02T16:37:43.017Z,100187.00
2018-11-02T16:40:13.328Z,100188.00
2018-11-02T16:42:51.206Z,100191.00
2018-11-02T16:45:19.433Z,100196.00
2018-11-02T16:47:47.691Z,100203.00
2018-11-02T16:50:15.926Z,100222.00
2018-11-02T16:52:45.564Z,100233.00
2018-11-02T16:55:13.789Z,100240.00
2018-11-02T16:57:42.116Z,100238.00
2018-11-02T17:00:14.247Z,100238.00
2018-11-02T17:02:43.051Z,100244.00
2018-11-02T17:05:11.266Z,100241.00
2018-11-02T17:07:40.036Z,100246.00
2018-11-02T17:10:09.554Z,100251.00
2018-11-02T17:12:38.388Z,100255.00
2018-11-02T17:15:07.126Z,100270.00
2018-11-02T17:17:35.586Z,100278.00
2018-11-02T17:20:06.111Z,100272.00
2018-11-02T17:22:34.277Z,100274.00
2018-11-02T17:25:02.500Z,100280.00
2018-11-02T17:27:30.651Z,100288.00
2018-11-02T17:29:58.805Z,100296.00
2018-11-02T17:32:27.041Z,100306.00
2018-11-02T17:34:55.224Z,100316.00
2018-11-02T17:37:23.464Z,100323.00
2018-11-02T17:39:51.564Z,100321.00
2018-11-02T17:42:20.013Z,100319.00
2018-11-02T17:44:49.135Z,100327.00
2018-11-02T17:47:17.962Z,100328.00
2018-11-02T17:49:46.068Z,100338.00
2018-11-02T17:52:14.698Z,100350.00
2018-11-02T17:54:42.906Z,100358.00
2018-11-02T17:57:11.089Z,100369.00
2018-11-02T17:59:39.243Z,100378.00
2018-11-02T18:02:07.552Z,100382.00
2018-11-02T18:04:35.765Z,100386.00
2018-11-02T18:07:04.636Z,100392.00
2018-11-02T18:09:32.879Z,100386.00
2018-11-02T18:12:01.475Z,100385.00
2018-11-02T18:14:29.926Z,100390.00
2018-11-02T18:16:58.082Z,100386.00
2018-11-02T18:19:26.843Z,100392.00
2018-11-02T18:21:55.518Z,100392.00
2018-11-02T18:24:23.961Z,100389.00
2018-11-02T18:26:52.325Z,100386.00
2018-11-02T18:29:20.551Z,100388.00
2018-11-02T18:31:48.735Z,100380.00
2018-11-02T18:34:17.861Z,100387.00
2018-11-02T18:36:47.148Z,100393.00
2018-11-02T18:39:15.954Z,100395.00
2018-11-02T18:41:44.625Z,100393.00
2018-11-02T18:44:13.063Z,100389.00
2018-11-02T18:46:41.654Z,100390.00
2018-11-02T18:49:10.777Z,100391.00
2018-11-02T18:51:40.903Z,100397.00
2018-11-02T18:54:10.247Z,100394.00
2018-11-02T18:56:38.486Z,100398.00
2018-11-02T18:59:08.025Z,100404.00
2018-11-02T19:01:36.371Z,100400.00
2018-11-02T19:04:05.681Z,100403.00
2018-11-02T19:06:33.982Z,100398.00
2018-11-02T19:09:02.376Z,100406.00
2018-11-02T19:11:30.755Z,100405.00
2018-11-02T19:13:59.051Z,100405.00
2018-11-02T19:16:27.340Z,100409.00
2018-11-02T19:18:56.252Z,100408.00
2018-11-02T19:21:24.929Z,100417.00
2018-11-02T19:23:53.226Z,100410.00
2018-11-02T19:26:21.710Z,100408.00
2018-11-02T19:28:49.933Z,100409.00
2018-11-02T19:31:18.289Z,100419.00
2018-11-02T19:33:46.788Z,100425.00
2018-11-02T19:36:15.146Z,100426.00
2018-11-02T19:38:43.423Z,100427.00
2018-11-02T19:41:11.572Z,100434.00
2018-11-02T19:43:39.889Z,100444.00
2018-11-02T19:46:08.115Z,100446.00
2018-11-02T19:48:36.474Z,100452.00
2018-11-02T19:51:05.124Z,100453.00
2018-11-02T19:53:33.400Z,100456.00
2018-11-02T19:56:01.542Z,100460.00
2018-11-02T19:58:29.768Z,100458.00
2018-11-02T20:00:58.010Z,100456.00
2018-11-02T20:03:26.196Z,100458.00
2018-11-02T20:05:54.358Z,100456.00
2018-11-02T20:08:23.765Z,100460.00
2018-11-02T20:10:57.145Z,100462.00
2018-11-02T20:13:25.400Z,100469.00
2018-11-02T20:15:53.638Z,100468.00
2018-11-02T20:18:22.626Z,100468.00
2018-11-02T20:20:50.823Z,100471.00
2018-11-02T20:23:18.996Z,100467.00
2018-11-02T20:25:47.210Z,100463.00
2018-11-02T20:28:15.381Z,100468.00
2018-11-02T20:30:43.699Z,100471.00
2018-11-02T20:33:11.922Z,100468.00
2018-11-02T20:35:40.102Z,100471.00
2018-11-02T20:38:08.315Z,100479.00
2018-11-02T20:40:36.556Z,100475.00
2018-11-02T20:43:04.774Z,100479.00
2018-11-02T20:45:32.998Z,100481.00
2018-11-02T20:48:01.178Z,100484.00
2018-11-02T20:50:29.353Z,100486.00
2018-11-02T20:52:57.574Z,100493.00
2018-11-02T20:55:25.822Z,100490.00
2018-11-02T20:57:53.968Z,100487.00
2018-11-02T21:00:23.295Z,100492.00
2018-11-02T21:02:51.608Z,100497.00
2018-11-02T21:05:20.353Z,100499.00
2018-11-02T21:07:49.106Z,100497.00
2018-11-02T21:10:18.404Z,100500.00
2018-11-02T21:12:46.973Z,100498.00
2018-11-02T21:15:18.567Z,100500.00
2018-11-02T21:17:47.204Z,100501.00
2018-11-02T21:20:16.658Z,100506.00
2018-11-02T21:22:45.050Z,100502.00
2018-11-02T21:25:13.869Z,100507.00
2018-11-02T21:27:42.642Z,100504.00
2018-11-02T21:30:13.871Z,100510.00
2018-11-02T21:32:42.901Z,100514.00
2018-11-02T21:35:11.125Z,100517.00
2018-11-02T21:37:39.274Z,100516.00
2018-11-02T21:40:10.687Z,100514.00
2018-11-02T21:42:38.863Z,100509.00
2018-11-02T21:45:07.041Z,100513.00
2018-11-02T21:47:35.256Z,100517.00
2018-11-02T21:50:03.995Z,100521.00
2018-11-02T21:52:32.185Z,100524.00
2018-11-02T21:55:00.342Z,100531.00
2018-11-02T21:57:28.518Z,100521.00
2018-11-02T21:59:56.667Z,100517.00
2018-11-02T22:02:24.865Z,100516.00
2018-11-02T22:04:53.077Z,100517.00
2018-11-02T22:07:21.217Z,100522.00
2018-11-02T22:09:49.467Z,100531.00
2018-11-02T22:12:18.626Z,100536.00
2018-11-02T22:14:46.820Z,100532.00
2018-11-02T22:17:14.955Z,100535.00
2018-11-02T22:19:43.183Z,100527.00
2018-11-02T22:22:11.436Z,100527.00
2018-11-02T22:24:39.772Z,100525.00
2018-11-02T22:27:07.986Z,100519.00
2018-11-02T22:29:36.186Z,100519.00
2018-11-02T22:32:04.449Z,100520.00
2018-11-02T22:34:32.629Z,100517.00
2018-11-02T22:37:00.825Z,100521.00
2018-11-02T22:39:29.112Z,100517.00
2018-11-02T22:41:57.750Z,100516.00
2018-11-02T22:44:25.920Z,100522.00
2018-11-02T22:46:54.089Z,100528.00
2018-11-02T22:49:22.318Z,100530.00
2018-11-02T22:51:50.557Z,100532.00
2018-11-02T22:54:18.800Z,100530.00
2018-11-02T22:56:47.048Z,100538.00
2018-11-02T22:59:15.261Z,100535.00
2018-11-02T23:01:43.587Z,100537.00
2018-11-02T23:04:11.864Z,100533.00
2018-11-02T23:06:40.056Z,100530.00
2018-11-02T23:09:08.865Z,100538.00
2018-11-02T23:11:37.269Z,100542.00
2018-11-02T23:14:06.354Z,100543.00
2018-11-02T23:16:34.803Z,100542.00
2018-11-02T23:19:03.038Z,100542.00
2018-11-02T23:21:31.152Z,100540.00
2018-11-02T23:23:59.333Z,100545.00
2018-11-02T23:26:27.565Z,100548.00
2018-11-02T23:28:55.760Z,100549.00
2018-11-02T23:31:24.099Z,100551.00
2018-11-02T23:33:52.329Z,100550.00
2018-11-02T23:36:20.778Z,100557.00
2018-11-02T23:38:48.994Z,100554.00
2018-11-02T23:41:17.259Z,100556.00
2018-11-02T23:43:45.404Z,100555.00
2018-11-02T23:46:13.558Z,100552.00
2018-11-02T23:48:41.776Z,100560.00
2018-11-02T23:51:09.933Z,100559.00
2018-11-02T23:53:38.136Z,100561.00
2018-11-02T23:56:06.717Z,100552.00
2018-11-02T23:58:35.470Z,100554.00
